Flight Track Log - Related Links

Times and Time Zones

All times are in EDT time to prevent confusion due to time zone crossing. See the SKW5631 flight status page for this flight to view local times or setup timezone preferences in your user account.

Time Position Orientation Groundspeed Altitude Reporting Facility
EDT Latitude Longitude Course Direction KTS MPH feet Rate Location/Type
Mon 09:58:28 PM 37.6500 -122.3667 133° Southeast 175 201 1,900  Level Northern Cal TRACON
Mon 09:59:59 PM 37.7083 -122.4186 325° Northwest 213 245 5,300 2,211 Climbing Oakland Center
Mon 10:01:00 PM 37.3599 -122.2385 136° Southeast  Level FlightAware Approximate
Mon 10:01:00 PM 37.6736 -122.4614 224° Southwest 226 260 7,500  Level Oakland Center
Mon 10:02:00 PM 37.2726 -122.1172 130° Southeast  Level FlightAware Approximate
Mon 10:02:01 PM 37.6033 -122.4631 181° South 245 282 8,900  Level Oakland Center
Mon 10:03:00 PM 37.1822 -121.9985 133° Southeast  Level FlightAware Approximate
Mon 10:03:02 PM 37.5183 -122.4611 179° South 297 342 11,000  Level Oakland Center
Mon 10:04:03 PM 37.4469 -122.4050 148° Southeast 304 350 12,800 1,463 Climbing Oakland Center
Mon 10:05:05 PM 37.3792 -122.3272 138° Southeast 322 371 14,000 1,561 Climbing Oakland Center
Mon 10:06:06 PM 37.2950 -122.2333 138° Southeast 336 387 16,000 1,672 Climbing Oakland Center
Mon 10:07:07 PM 37.2222 -122.1519 138° Southeast 346 398 17,400 1,230 Climbing Oakland Center
Mon 10:08:08 PM 37.1483 -122.0692 138° Southeast 356 410 18,500 1,180 Climbing Oakland Center
Mon 10:09:09 PM 37.0717 -121.9847 139° Southeast 365 420 19,800 1,180 Climbing Oakland Center
Mon 10:10:10 PM 36.9942 -121.8983 138° Southeast 370 426 20,900 934 Climbing Oakland Center
Mon 10:11:11 PM 36.9169 -121.8128 138° Southeast 373 429 21,700 787 Climbing Oakland Center
Mon 10:12:12 PM 36.8353 -121.7286 140° Southeast 381 438 22,500 787 Climbing Oakland Center
Mon 10:13:13 PM 36.7486 -121.6322 138° Southeast 392 451 23,300 836 Climbing Oakland Center
Mon 10:14:14 PM 36.6667 -121.5408 138° Southeast 394 453 24,200 738 Climbing Oakland Center
Mon 10:15:15 PM 36.5853 -121.4511 138° Southeast 393 452 24,800 590 Climbing Oakland Center
Mon 10:16:16 PM 36.5011 -121.3606 139° Southeast 398 458 25,400 885 Climbing Oakland Center
Mon 10:17:17 PM 36.4189 -121.2708 139° Southeast 395 455 26,600 780 Climbing Oakland Center
Mon 10:18:19 PM 36.3403 -121.1853 139° Southeast 379 436 27,000 195 Climbing Oakland Center
Mon 10:19:20 PM 36.2628 -121.1019 139° Southeast 370 426 27,000  Level Oakland Center
Mon 10:20:21 PM 36.1847 -121.0203 140° Southeast 367 422 27,000  Level Oakland Center
Mon 10:21:22 PM 36.0906 -120.9158 138° Southeast 377 434 27,000  Level Oakland Center
Mon 10:22:23 PM 36.0106 -120.8297 139° Southeast 381 438 27,000  Level Oakland Center
Mon 10:23:24 PM 35.9294 -120.7447 140° Southeast 384 442 27,000  Level Oakland Center
Mon 10:24:25 PM 35.8483 -120.6567 139° Southeast 388 447 27,000  Level Oakland Center
Mon 10:25:26 PM 35.7661 -120.5703 140° Southeast 389 448 27,000  Level Oakland Center
Mon 10:26:28 PM 35.6833 -120.4828 139° Southeast 390 449 27,000  Level Oakland Center
Mon 10:27:29 PM 35.6003 -120.3953 139° Southeast 390 449 27,000  Level Oakland Center
Mon 10:28:30 PM 35.5189 -120.3086 139° Southeast 386 444 27,000  Level Oakland Center
Mon 10:29:31 PM 35.4333 -120.2158 139° Southeast 390 449 27,000  Level Oakland Center
Mon 10:30:32 PM 35.3517 -120.1314 140° Southeast 389 448 27,000  Level Oakland Center
Mon 10:31:33 PM 35.2697 -120.0472 140° Southeast 383 441 27,000  Level Oakland Center
Mon 10:32:34 PM 35.1894 -119.9642 140° Southeast 379 436 27,000  Level Oakland Center
Mon 10:33:35 PM 35.1086 -119.8808 140° Southeast 379 436 27,000 -733 Level Oakland Center
Mon 10:34:45 PM 35.0206 -119.7667 133° Southeast 388 447 25,400 -1,695 Descending Los Angeles Center
Mon 10:35:46 PM 34.9508 -119.6706 131° Southeast 379 436 23,300 -2,000 Descending Los Angeles Center
Mon 10:36:48 PM 34.8850 -119.5814 132° Southeast 357 411 21,300 -1,951 Descending Los Angeles Center
Mon 10:37:49 PM 34.8206 -119.4953 132° Southeast 345 397 19,300 -2,098 Descending Los Angeles Center
Mon 10:38:51 PM 34.7469 -119.3981 133° Southeast 327 376 17,000 -1,935 Descending Los Angeles Center
Mon 10:39:53 PM 34.6883 -119.3203 132° Southeast 314 361 15,300 -1,561 Descending Los Angeles Center
Mon 10:40:54 PM 34.6306 -119.2417 132° Southeast 312 359 13,800 -1,463 Descending Los Angeles Center
Mon 10:41:56 PM 34.5736 -119.1711 134° Southeast 305 351 12,300 -1,355 Descending Los Angeles Center
Mon 10:42:58 PM 34.5183 -119.0953 131° Southeast 302 348 11,000 -634 Descending Los Angeles Center
Mon 10:43:59 PM 34.4633 -119.0233 133° Southeast 291 335 11,000 -927 Level Los Angeles Center
Mon 10:45:01 PM 34.4003 -118.9344 131° Southeast 286 329 9,100 -1,887 Descending Los Angeles Center
Mon 10:46:03 PM 34.3533 -118.8561 126° Southeast 284 327 7,100 -1,951 Descending Los Angeles Center
Mon 10:47:04 PM 34.3058 -118.7825 128° Southeast 279 321 5,100 -1,512 Descending Los Angeles Center
Mon 10:48:06 PM 34.2631 -118.7114 126° Southeast 268 308 4,000 -532 Descending Los Angeles Center
Mon 10:49:08 PM 34.2267 -118.6508 126° Southeast 245 282 4,000  Level Los Angeles Center
Mon 10:50:10 PM 34.2019 -118.5897 116° Southeast 221 254 4,000 -390 Level Los Angeles Center
Mon 10:51:11 PM 34.2003 -118.5217 92° East 210 242 3,200 -787 Descending Los Angeles Center

Login

Don't have an account? Register now (free) for customized features, flight alerts, and more!